sensor_id;sensor_type;location;lat;lon;timestamp;P1;durP1;ratioP1;P2;durP2;ratioP2
5912;SDS011;2982;42.684;23.356;2023-09-30T00:01:23;7.35;;;4.88;;
5912;SDS011;2982;42.684;23.356;2023-09-30T00:03:48;10.07;;;5.25;;
5912;SDS011;2982;42.684;23.356;2023-09-30T00:06:16;13.57;;;5.57;;
5912;SDS011;2982;42.684;23.356;2023-09-30T00:08:41;17.77;;;5.38;;
5912;SDS011;2982;42.684;23.356;2023-09-30T00:11:07;7.68;;;4.25;;
5912;SDS011;2982;42.684;23.356;2023-09-30T00:13:32;10.07;;;5.35;;
5912;SDS011;2982;42.684;23.356;2023-09-30T00:15:58;7.70;;;4.68;;
5912;SDS011;2982;42.684;23.356;2023-09-30T00:18:23;9.63;;;5.50;;
5912;SDS011;2982;42.684;23.356;2023-09-30T00:20:59;9.90;;;4.85;;
5912;SDS011;2982;42.684;23.356;2023-09-30T00:23:24;8.38;;;5.22;;
5912;SDS011;2982;42.684;23.356;2023-09-30T00:25:50;5.45;;;4.95;;
5912;SDS011;2982;42.684;23.356;2023-09-30T00:28:15;9.93;;;4.90;;
5912;SDS011;2982;42.684;23.356;2023-09-30T00:30:41;10.57;;;5.05;;
5912;SDS011;2982;42.684;23.356;2023-09-30T00:33:06;7.95;;;5.13;;
5912;SDS011;2982;42.684;23.356;2023-09-30T00:35:32;5.20;;;4.72;;
5912;SDS011;2982;42.684;23.356;2023-09-30T00:37:57;9.13;;;5.28;;
5912;SDS011;2982;42.684;23.356;2023-09-30T00:40:23;8.30;;;4.88;;
5912;SDS011;2982;42.684;23.356;2023-09-30T00:42:48;8.95;;;4.63;;
5912;SDS011;2982;42.684;23.356;2023-09-30T00:45:14;7.93;;;4.82;;
5912;SDS011;2982;42.684;23.356;2023-09-30T00:47:39;7.22;;;4.75;;
5912;SDS011;2982;42.684;23.356;2023-09-30T00:50:05;7.30;;;4.65;;
5912;SDS011;2982;42.684;23.356;2023-09-30T00:52:32;11.45;;;5.30;;
5912;SDS011;2982;42.684;23.356;2023-09-30T00:55:02;8.95;;;5.25;;
5912;SDS011;2982;42.684;23.356;2023-09-30T00:57:27;6.10;;;5.00;;
5912;SDS011;2982;42.684;23.356;2023-09-30T00:59:54;9.43;;;4.88;;
5912;SDS011;2982;42.684;23.356;2023-09-30T01:02:20;9.65;;;5.43;;
5912;SDS011;2982;42.684;23.356;2023-09-30T01:04:46;8.27;;;5.03;;
5912;SDS011;2982;42.684;23.356;2023-09-30T01:07:12;5.38;;;4.88;;
5912;SDS011;2982;42.684;23.356;2023-09-30T01:09:38;9.88;;;5.05;;
5912;SDS011;2982;42.684;23.356;2023-09-30T01:12:03;6.50;;;4.53;;
5912;SDS011;2982;42.684;23.356;2023-09-30T01:14:32;9.52;;;5.55;;
5912;SDS011;2982;42.684;23.356;2023-09-30T01:16:58;8.80;;;4.78;;
5912;SDS011;2982;42.684;23.356;2023-09-30T01:19:27;10.52;;;5.22;;
5912;SDS011;2982;42.684;23.356;2023-09-30T01:21:56;7.72;;;4.88;;
5912;SDS011;2982;42.684;23.356;2023-09-30T01:24:22;14.23;;;5.07;;
5912;SDS011;2982;42.684;23.356;2023-09-30T01:26:47;5.68;;;4.55;;
5912;SDS011;2982;42.684;23.356;2023-09-30T01:29:13;7.22;;;5.22;;
5912;SDS011;2982;42.684;23.356;2023-09-30T01:31:38;12.70;;;5.57;;
5912;SDS011;2982;42.684;23.356;2023-09-30T01:34:03;7.65;;;4.93;;
5912;SDS011;2982;42.684;23.356;2023-09-30T01:36:29;4.63;;;4.20;;
5912;SDS011;2982;42.684;23.356;2023-09-30T01:38:55;11.38;;;5.25;;
5912;SDS011;2982;42.684;23.356;2023-09-30T01:41:20;10.02;;;4.90;;
5912;SDS011;2982;42.684;23.356;2023-09-30T01:43:46;7.65;;;4.63;;
5912;SDS011;2982;42.684;23.356;2023-09-30T01:46:11;6.65;;;4.43;;
5912;SDS011;2982;42.684;23.356;2023-09-30T01:48:37;8.23;;;4.75;;
5912;SDS011;2982;42.684;23.356;2023-09-30T01:51:02;7.47;;;4.60;;
5912;SDS011;2982;42.684;23.356;2023-09-30T01:53:28;11.52;;;4.43;;
5912;SDS011;2982;42.684;23.356;2023-09-30T01:55:53;4.93;;;4.53;;
5912;SDS011;2982;42.684;23.356;2023-09-30T01:58:19;6.60;;;4.70;;
5912;SDS011;2982;42.684;23.356;2023-09-30T02:00:47;11.07;;;4.80;;
5912;SDS011;2982;42.684;23.356;2023-09-30T02:03:12;11.48;;;4.50;;
5912;SDS011;2982;42.684;23.356;2023-09-30T02:05:38;6.65;;;4.95;;
5912;SDS011;2982;42.684;23.356;2023-09-30T02:08:04;5.13;;;4.30;;
5912;SDS011;2982;42.684;23.356;2023-09-30T02:10:30;4.80;;;4.10;;
5912;SDS011;2982;42.684;23.356;2023-09-30T02:12:55;8.35;;;4.38;;
5912;SDS011;2982;42.684;23.356;2023-09-30T02:15:21;7.95;;;4.60;;
5912;SDS011;2982;42.684;23.356;2023-09-30T02:17:46;9.02;;;4.70;;
5912;SDS011;2982;42.684;23.356;2023-09-30T02:20:12;7.00;;;3.70;;
5912;SDS011;2982;42.684;23.356;2023-09-30T02:22:38;5.72;;;4.07;;
5912;SDS011;2982;42.684;23.356;2023-09-30T02:25:04;14.43;;;5.50;;
5912;SDS011;2982;42.684;23.356;2023-09-30T02:27:30;6.65;;;4.38;;
5912;SDS011;2982;42.684;23.356;2023-09-30T02:29:55;7.63;;;4.80;;
5912;SDS011;2982;42.684;23.356;2023-09-30T02:32:21;5.10;;;4.25;;
5912;SDS011;2982;42.684;23.356;2023-09-30T02:34:49;4.35;;;3.95;;
5912;SDS011;2982;42.684;23.356;2023-09-30T02:37:15;8.13;;;4.10;;
5912;SDS011;2982;42.684;23.356;2023-09-30T02:39:40;7.78;;;4.15;;
5912;SDS011;2982;42.684;23.356;2023-09-30T02:42:05;4.75;;;4.32;;
5912;SDS011;2982;42.684;23.356;2023-09-30T02:44:30;4.50;;;4.10;;
5912;SDS011;2982;42.684;23.356;2023-09-30T02:46:56;6.80;;;3.88;;
5912;SDS011;2982;42.684;23.356;2023-09-30T02:49:21;5.03;;;4.57;;
5912;SDS011;2982;42.684;23.356;2023-09-30T02:51:46;6.30;;;4.47;;
5912;SDS011;2982;42.684;23.356;2023-09-30T02:54:12;6.07;;;4.38;;
5912;SDS011;2982;42.684;23.356;2023-09-30T02:56:37;5.40;;;4.47;;
5912;SDS011;2982;42.684;23.356;2023-09-30T02:59:02;7.70;;;4.53;;
5912;SDS011;2982;42.684;23.356;2023-09-30T03:01:28;5.35;;;4.95;;
5912;SDS011;2982;42.684;23.356;2023-09-30T03:03:53;5.53;;;4.75;;
5912;SDS011;2982;42.684;23.356;2023-09-30T03:06:18;8.07;;;4.82;;
5912;SDS011;2982;42.684;23.356;2023-09-30T03:08:44;9.65;;;4.88;;
5912;SDS011;2982;42.684;23.356;2023-09-30T03:11:09;9.20;;;5.55;;
5912;SDS011;2982;42.684;23.356;2023-09-30T03:13:34;11.88;;;6.03;;
5912;SDS011;2982;42.684;23.356;2023-09-30T03:16:00;11.65;;;4.80;;
5912;SDS011;2982;42.684;23.356;2023-09-30T03:18:25;8.48;;;5.10;;
5912;SDS011;2982;42.684;23.356;2023-09-30T03:20:50;11.25;;;5.45;;
5912;SDS011;2982;42.684;23.356;2023-09-30T03:23:16;6.03;;;5.47;;
5912;SDS011;2982;42.684;23.356;2023-09-30T03:25:41;9.48;;;5.80;;
5912;SDS011;2982;42.684;23.356;2023-09-30T03:28:06;5.68;;;4.82;;
5912;SDS011;2982;42.684;23.356;2023-09-30T03:30:31;9.45;;;5.30;;
5912;SDS011;2982;42.684;23.356;2023-09-30T04:02:06;13.23;;;5.45;;
5912;SDS011;2982;42.684;23.356;2023-09-30T04:05:11;6.03;;;4.88;;
5912;SDS011;2982;42.684;23.356;2023-09-30T04:07:57;13.77;;;5.93;;
5912;SDS011;2982;42.684;23.356;2023-09-30T04:11:09;6.32;;;4.53;;
5912;SDS011;2982;42.684;23.356;2023-09-30T04:14:17;31.23;;;6.07;;
5912;SDS011;2982;42.684;23.356;2023-09-30T04:27:48;7.18;;;4.82;;
5912;SDS011;2982;42.684;23.356;2023-09-30T04:30:35;7.47;;;4.65;;
5912;SDS011;2982;42.684;23.356;2023-09-30T04:33:23;7.43;;;4.80;;
5912;SDS011;2982;42.684;23.356;2023-09-30T04:35:49;7.90;;;4.70;;
5912;SDS011;2982;42.684;23.356;2023-09-30T04:38:15;14.65;;;4.50;;
5912;SDS011;2982;42.684;23.356;2023-09-30T04:40:41;5.78;;;4.97;;
5912;SDS011;2982;42.684;23.356;2023-09-30T04:43:09;6.53;;;4.03;;
5912;SDS011;2982;42.684;23.356;2023-09-30T04:45:38;10.10;;;5.05;;
5912;SDS011;2982;42.684;23.356;2023-09-30T04:48:11;4.82;;;4.20;;
5912;SDS011;2982;42.684;23.356;2023-09-30T05:13:50;6.97;;;4.90;;
5912;SDS011;2982;42.684;23.356;2023-09-30T06:44:50;5.32;;;4.05;;
5912;SDS011;2982;42.684;23.356;2023-09-30T06:47:55;5.20;;;4.70;;
5912;SDS011;2982;42.684;23.356;2023-09-30T07:01:01;6.72;;;4.63;;
5912;SDS011;2982;42.684;23.356;2023-09-30T07:03:41;7.18;;;4.93;;
5912;SDS011;2982;42.684;23.356;2023-09-30T07:06:46;9.25;;;4.05;;
5912;SDS011;2982;42.684;23.356;2023-09-30T07:09:11;7.57;;;4.75;;
5912;SDS011;2982;42.684;23.356;2023-09-30T07:11:57;5.18;;;4.30;;
5912;SDS011;2982;42.684;23.356;2023-09-30T07:14:23;4.05;;;3.75;;
5912;SDS011;2982;42.684;23.356;2023-09-30T07:22:04;4.07;;;3.70;;
5912;SDS011;2982;42.684;23.356;2023-09-30T07:24:41;7.80;;;4.60;;
5912;SDS011;2982;42.684;23.356;2023-09-30T07:27:26;6.18;;;3.42;;
5912;SDS011;2982;42.684;23.356;2023-09-30T07:32:41;6.57;;;3.40;;
5912;SDS011;2982;42.684;23.356;2023-09-30T07:35:49;6.60;;;3.88;;
5912;SDS011;2982;42.684;23.356;2023-09-30T07:38:35;15.45;;;4.10;;
5912;SDS011;2982;42.684;23.356;2023-09-30T13:11:58;4.28;;;2.80;;
5912;SDS011;2982;42.684;23.356;2023-09-30T13:14:44;6.07;;;2.97;;
5912;SDS011;2982;42.684;23.356;2023-09-30T13:17:38;7.10;;;3.75;;
5912;SDS011;2982;42.684;23.356;2023-09-30T13:20:04;5.18;;;3.40;;
5912;SDS011;2982;42.684;23.356;2023-09-30T13:23:13;3.20;;;2.90;;
5912;SDS011;2982;42.684;23.356;2023-09-30T13:25:55;5.68;;;3.20;;
5912;SDS011;2982;42.684;23.356;2023-09-30T13:39:01;7.03;;;3.70;;
5912;SDS011;2982;42.684;23.356;2023-09-30T13:41:41;13.50;;;2.72;;
5912;SDS011;2982;42.684;23.356;2023-09-30T13:44:41;4.43;;;3.22;;
5912;SDS011;2982;42.684;23.356;2023-09-30T15:27:38;6.95;;;3.30;;
5912;SDS011;2982;42.684;23.356;2023-09-30T15:30:05;5.13;;;3.42;;
5912;SDS011;2982;42.684;23.356;2023-09-30T15:37:50;4.82;;;3.67;;
5912;SDS011;2982;42.684;23.356;2023-09-30T15:40:24;4.53;;;3.70;;
5912;SDS011;2982;42.684;23.356;2023-09-30T15:58:39;7.13;;;3.75;;
5912;SDS011;2982;42.684;23.356;2023-09-30T16:01:47;5.45;;;3.10;;
5912;SDS011;2982;42.684;23.356;2023-09-30T16:04:53;10.30;;;3.33;;
5912;SDS011;2982;42.684;23.356;2023-09-30T16:07:58;4.68;;;3.65;;
5912;SDS011;2982;42.684;23.356;2023-09-30T16:10:45;7.18;;;4.03;;
5912;SDS011;2982;42.684;23.356;2023-09-30T16:13:18;5.50;;;3.63;;
5912;SDS011;2982;42.684;23.356;2023-09-30T16:18:40;6.18;;;3.67;;
5912;SDS011;2982;42.684;23.356;2023-09-30T16:21:30;4.22;;;2.90;;
5912;SDS011;2982;42.684;23.356;2023-09-30T16:23:56;8.50;;;4.03;;
5912;SDS011;2982;42.684;23.356;2023-09-30T16:26:21;5.35;;;3.75;;
5912;SDS011;2982;42.684;23.356;2023-09-30T16:39:07;9.70;;;4.65;;
5912;SDS011;2982;42.684;23.356;2023-09-30T16:41:55;4.70;;;3.90;;
5912;SDS011;2982;42.684;23.356;2023-09-30T16:44:59;6.35;;;5.05;;
5912;SDS011;2982;42.684;23.356;2023-09-30T20:09:53;8.07;;;5.13;;
5912;SDS011;2982;42.684;23.356;2023-09-30T22:01:39;15.65;;;5.13;;
5912;SDS011;2982;42.684;23.356;2023-09-30T22:04:04;8.05;;;4.10;;
5912;SDS011;2982;42.684;23.356;2023-09-30T22:06:30;6.95;;;5.10;;
5912;SDS011;2982;42.684;23.356;2023-09-30T22:08:55;6.03;;;4.03;;
5912;SDS011;2982;42.684;23.356;2023-09-30T22:11:21;8.15;;;4.18;;
5912;SDS011;2982;42.684;23.356;2023-09-30T22:13:46;8.05;;;4.30;;
5912;SDS011;2982;42.684;23.356;2023-09-30T22:16:11;4.60;;;3.67;;
5912;SDS011;2982;42.684;23.356;2023-09-30T22:18:37;7.90;;;4.18;;
5912;SDS011;2982;42.684;23.356;2023-09-30T22:21:02;5.22;;;3.70;;
5912;SDS011;2982;42.684;23.356;2023-09-30T22:23:28;3.60;;;3.03;;
5912;SDS011;2982;42.684;23.356;2023-09-30T22:25:53;11.80;;;4.45;;
5912;SDS011;2982;42.684;23.356;2023-09-30T22:28:18;7.53;;;3.72;;
5912;SDS011;2982;42.684;23.356;2023-09-30T22:30:44;5.50;;;2.83;;
5912;SDS011;2982;42.684;23.356;2023-09-30T22:33:09;8.98;;;4.03;;
5912;SDS011;2982;42.684;23.356;2023-09-30T22:35:35;6.90;;;3.28;;
5912;SDS011;2982;42.684;23.356;2023-09-30T22:38:02;3.67;;;3.38;;
5912;SDS011;2982;42.684;23.356;2023-09-30T22:40:28;4.88;;;3.25;;
5912;SDS011;2982;42.684;23.356;2023-09-30T22:42:53;7.45;;;3.72;;
5912;SDS011;2982;42.684;23.356;2023-09-30T22:45:19;3.70;;;3.33;;
5912;SDS011;2982;42.684;23.356;2023-09-30T22:47:45;9.18;;;3.17;;
5912;SDS011;2982;42.684;23.356;2023-09-30T22:50:12;7.35;;;3.40;;
5912;SDS011;2982;42.684;23.356;2023-09-30T22:52:39;6.85;;;3.90;;
5912;SDS011;2982;42.684;23.356;2023-09-30T22:55:09;6.50;;;3.63;;
5912;SDS011;2982;42.684;23.356;2023-09-30T22:57:45;6.35;;;3.53;;
5912;SDS011;2982;42.684;23.356;2023-09-30T23:00:12;6.43;;;4.03;;
5912;SDS011;2982;42.684;23.356;2023-09-30T23:02:38;9.63;;;4.13;;
5912;SDS011;2982;42.684;23.356;2023-09-30T23:05:04;4.38;;;3.95;;
5912;SDS011;2982;42.684;23.356;2023-09-30T23:07:30;3.88;;;3.22;;
5912;SDS011;2982;42.684;23.356;2023-09-30T23:09:56;4.32;;;3.75;;
5912;SDS011;2982;42.684;23.356;2023-09-30T23:12:21;7.88;;;3.22;;
5912;SDS011;2982;42.684;23.356;2023-09-30T23:14:47;6.28;;;3.72;;
5912;SDS011;2982;42.684;23.356;2023-09-30T23:17:13;4.28;;;3.65;;
5912;SDS011;2982;42.684;23.356;2023-09-30T23:19:38;6.82;;;3.75;;
5912;SDS011;2982;42.684;23.356;2023-09-30T23:22:03;4.70;;;3.88;;
5912;SDS011;2982;42.684;23.356;2023-09-30T23:24:29;6.40;;;4.55;;
5912;SDS011;2982;42.684;23.356;2023-09-30T23:26:54;7.10;;;4.40;;
5912;SDS011;2982;42.684;23.356;2023-09-30T23:29:20;8.10;;;4.28;;
5912;SDS011;2982;42.684;23.356;2023-09-30T23:31:45;10.00;;;4.38;;
5912;SDS011;2982;42.684;23.356;2023-09-30T23:34:10;6.38;;;4.55;;
5912;SDS011;2982;42.684;23.356;2023-09-30T23:36:36;6.15;;;5.60;;
5912;SDS011;2982;42.684;23.356;2023-09-30T23:39:01;7.63;;;5.18;;
5912;SDS011;2982;42.684;23.356;2023-09-30T23:41:26;7.32;;;5.13;;
5912;SDS011;2982;42.684;23.356;2023-09-30T23:43:52;14.50;;;6.25;;
5912;SDS011;2982;42.684;23.356;2023-09-30T23:46:17;11.32;;;5.80;;
5912;SDS011;2982;42.684;23.356;2023-09-30T23:48:43;10.05;;;6.93;;
5912;SDS011;2982;42.684;23.356;2023-09-30T23:51:08;7.60;;;5.72;;
5912;SDS011;2982;42.684;23.356;2023-09-30T23:53:34;6.40;;;5.78;;
5912;SDS011;2982;42.684;23.356;2023-09-30T23:55:59;6.70;;;5.88;;
5912;SDS011;2982;42.684;23.356;2023-09-30T23:58:24;12.85;;;6.07;;
